Time;durP1;ratioP1;P1;durP2;ratioP2;P2;SDS_P1;SDS_P2;PMS_P1;PMS_P2;Temp;Humidity;BMP_temperature;BMP_pressure;BME280_temperature;BME280_humidity;BME280_pressure;Samples;Min_cycle;Max_cycle;Signal;HPM_P1;HPM_P2
2021/11/29 00:02:22;;;;;;;15.27;10.85;;;2.80;79.30;;;1.78;66.53;92948.25;5055211;28;20286;-83
2021/11/29 00:04:49;;;;;;;12.85;9.20;;;2.80;79.30;;;1.80;66.22;92955.84;5054760;28;20277;-83
2021/11/29 00:07:17;;;;;;;13.68;9.57;;;2.80;79.20;;;1.76;66.52;92958.78;5054335;28;20250;-83
2021/11/29 00:09:44;;;;;;;16.17;11.10;;;2.80;79.10;;;1.79;66.73;92962.78;5054967;28;20284;-83
2021/11/29 00:12:12;;;;;;;14.75;10.65;;;2.80;79.20;;;1.78;66.12;92976.69;5054467;28;20222;-84
2021/11/29 00:14:39;;;;;;;16.77;10.95;;;2.80;79.10;;;1.73;66.46;92971.28;5071218;28;20207;-83
2021/11/29 00:17:06;;;;;;;13.73;10.27;;;2.80;79.10;;;1.74;66.52;92978.06;5054287;28;20646;-83
2021/11/29 00:19:34;;;;;;;15.35;11.00;;;2.80;79.10;;;1.77;66.50;92990.63;5038064;28;20233;-84
2021/11/29 00:22:01;;;;;;;18.17;11.27;;;2.80;79.10;;;1.74;66.51;92993.56;5054690;28;20252;-83
2021/11/29 00:24:28;;;;;;;15.23;11.10;;;2.80;79.10;;;1.68;66.54;92973.63;5054291;28;20697;-83
2021/11/29 00:26:55;;;;;;;17.13;11.63;;;2.80;79.10;;;1.71;66.58;92981.00;5086685;28;20457;-83
2021/11/29 00:29:23;;;;;;;14.38;10.13;;;2.80;79.10;;;1.72;66.48;92988.59;5071062;28;20226;-83
2021/11/29 00:31:50;;;;;;;14.63;10.48;;;2.80;79.10;;;1.69;66.83;92993.31;5053006;28;20634;-83
2021/11/29 00:34:17;;;;;;;15.05;10.82;;;2.80;79.20;;;1.71;66.83;92991.31;5054084;28;20220;-83
2021/11/29 00:36:44;;;;;;;13.77;10.25;;;2.80;79.20;;;1.72;66.26;92992.94;5072706;28;20235;-83
2021/11/29 00:39:12;;;;;;;15.98;11.00;;;2.80;79.10;;;1.67;66.47;92983.19;5041497;28;20272;-83
2021/11/29 00:41:39;;;;;;;14.57;10.32;;;2.80;79.10;;;1.69;66.54;92982.97;5058740;28;20646;-83
2021/11/29 00:44:06;;;;;;;14.23;9.77;;;2.70;79.00;;;1.66;65.80;92981.56;5058596;28;20221;-84
2021/11/29 00:46:34;;;;;;;16.10;10.77;;;2.70;78.80;;;1.56;65.80;92968.97;5041471;28;20286;-83
2021/11/29 00:49:01;;;;;;;15.32;10.40;;;2.70;78.60;;;1.45;65.56;92959.09;5074810;28;20249;-83
2021/11/29 00:51:29;;;;;;;13.07;9.43;;;2.70;78.30;;;1.35;65.26;92971.53;5058514;28;20203;-83
2021/11/29 00:53:56;;;;;;;12.98;9.23;;;2.60;78.00;;;1.21;65.21;92978.31;5074632;28;20260;-83
2021/11/29 00:56:23;;;;;;;13.82;9.30;;;2.60;77.80;;;1.05;65.38;92976.75;5057520;28;20282;-83
2021/11/29 00:58:51;;;;;;;13.65;9.57;;;2.50;77.60;;;0.93;65.54;92979.03;5075223;28;20280;-84
2021/11/29 01:01:18;;;;;;;15.18;9.95;;;2.40;77.70;;;0.80;65.49;92977.88;5074525;28;20183;-83
2021/11/29 01:03:46;;;;;;;14.00;9.38;;;2.30;77.60;;;0.70;65.69;92969.63;5057983;28;20301;-83
2021/11/29 01:06:13;;;;;;;15.15;10.00;;;2.20;77.60;;;0.54;65.84;92964.63;5074586;28;20759;-82
2021/11/29 01:08:40;;;;;;;15.10;10.57;;;2.10;77.60;;;0.52;66.16;92975.13;5057729;28;20211;-83
2021/11/29 01:11:09;;;;;;;14.45;10.63;;;2.00;77.70;;;0.41;66.05;92965.28;5074986;28;20203;-83
2021/11/29 01:13:37;;;;;;;17.35;11.43;;;1.90;77.70;;;0.35;66.57;92978.88;5058463;28;20219;-82
2021/11/29 01:16:07;;;;;;;18.85;12.57;;;1.80;77.80;;;0.32;66.77;92985.97;5056686;28;20723;-82
2021/11/29 01:18:37;;;;;;;16.88;10.82;;;1.80;78.10;;;0.33;67.00;92979.06;5057629;28;20196;-81
2021/11/29 01:21:05;;;;;;;14.82;10.65;;;1.70;78.30;;;0.35;66.80;92976.28;5037907;28;20192;-82
2021/11/29 01:23:32;;;;;;;14.57;10.07;;;1.70;78.40;;;0.34;67.26;92972.13;5071182;28;20207;-82
2021/11/29 01:26:00;;;;;;;18.98;11.82;;;1.60;78.60;;;0.37;67.08;92971.78;5055207;28;20215;-83
2021/11/29 01:28:27;;;;;;;16.05;10.93;;;1.60;78.70;;;0.39;66.99;92977.53;5053866;28;20803;-82
2021/11/29 01:30:55;;;;;;;14.32;9.43;;;1.60;78.70;;;0.35;66.81;92984.81;5078418;28;20298;-82
2021/11/29 01:33:22;;;;;;;14.98;10.13;;;1.60;78.70;;;0.37;66.85;92980.28;5054151;28;20352;-83
2021/11/29 01:35:50;;;;;;;15.77;10.68;;;1.60;79.50;;;0.38;66.87;92978.50;5070996;28;20213;-83
2021/11/29 01:38:18;;;;;;;12.73;8.98;;;1.60;78.70;;;0.38;67.03;92981.91;5071187;28;20269;-83
2021/11/29 01:40:45;;;;;;;13.80;9.02;;;1.60;78.70;;;0.41;66.95;92984.13;5070349;28;20229;-82
2021/11/29 01:43:17;;;;;;;12.57;8.88;;;1.60;78.70;;;0.43;66.85;92996.84;5070619;28;20201;-83
2021/11/29 01:45:54;;;;;;;13.07;9.05;;;1.60;78.70;;;0.43;66.73;92999.44;5069258;28;20210;-83
2021/11/29 01:48:25;;;;;;;12.55;8.48;;;1.60;78.70;;;0.43;66.83;93009.75;5047380;28;20709;-83
2021/11/29 01:50:57;;;;;;;13.50;8.82;;;1.60;78.70;;;0.42;67.11;93010.72;5055572;28;20218;-83
2021/11/29 01:53:27;;;;;;;14.60;9.05;;;1.60;78.80;;;0.45;66.90;93006.00;5056057;28;20199;-83
2021/11/29 01:55:59;;;;;;;15.18;9.85;;;1.60;79.00;;;0.51;67.25;93006.28;5070584;28;20199;-83
2021/11/29 01:58:31;;;;;;;13.05;8.95;;;1.60;79.00;;;0.56;66.92;93006.53;5056186;28;20234;-82
2021/11/29 02:01:04;;;;;;;16.05;10.13;;;1.60;79.00;;;0.55;67.10;93010.91;5047762;28;20185;-82
2021/11/29 02:03:32;;;;;;;12.68;8.82;;;1.60;79.90;;;0.59;67.69;93009.56;5080317;28;20310;-78
2021/11/29 02:06:01;;;;;;;12.88;8.82;;;1.70;79.20;;;0.63;67.21;93020.31;5073140;28;20231;-78
2021/11/29 02:08:30;;;;;;;13.45;9.20;;;1.70;79.20;;;0.69;67.52;93018.81;5070233;28;20206;-78
2021/11/29 02:10:57;;;;;;;15.18;9.70;;;1.80;79.30;;;0.71;67.39;93011.69;5070421;28;20195;-78
2021/11/29 02:13:24;;;;;;;13.43;9.10;;;1.80;79.20;;;0.75;67.43;93018.91;5071613;28;20640;-78
2021/11/29 02:15:52;;;;;;;11.85;8.57;;;1.80;79.30;;;0.80;66.82;93018.38;5071664;28;20660;-78
2021/11/29 02:18:29;;;;;;;15.18;9.70;;;1.80;79.30;;;0.82;67.19;93026.75;5081843;28;20302;-78
2021/11/29 02:21:13;;;;;;;12.40;8.73;;;1.90;79.40;;;0.84;66.88;93024.75;5055624;28;20195;-78
2021/11/29 02:23:50;;;;;;;15.18;10.00;;;1.90;79.40;;;0.84;67.20;93023.97;5051165;28;20247;-78
2021/11/29 02:26:21;;;;;;;15.75;10.23;;;1.90;79.30;;;0.88;67.04;93022.63;5062774;28;20457;-79
2021/11/29 02:28:56;;;;;;;15.40;9.60;;;1.90;79.20;;;0.89;66.61;93026.81;5038241;28;20223;-78
2021/11/29 02:31:29;;;;;;;13.88;9.63;;;1.90;79.20;;;0.92;66.78;93029.03;5038297;28;20187;-78
2021/11/29 02:33:57;;;;;;;13.98;10.13;;;2.00;79.20;;;0.90;66.76;93024.03;5089252;28;20253;-78
2021/11/29 02:36:25;;;;;;;15.27;9.18;;;2.00;79.20;;;0.96;66.63;93025.13;5070356;28;20195;-78
2021/11/29 02:38:52;;;;;;;14.23;9.63;;;2.00;79.30;;;1.00;66.52;93028.13;5088674;28;20626;-77
2021/11/29 02:41:19;;;;;;;14.77;9.68;;;2.00;79.20;;;1.04;66.79;93026.78;5087007;28;20197;-79
2021/11/29 02:43:46;;;;;;;13.23;9.38;;;2.00;79.20;;;1.06;66.90;93025.66;5055309;28;20223;-78
2021/11/29 02:46:14;;;;;;;14.57;9.80;;;2.00;79.20;;;1.06;66.68;93024.84;5065852;28;20217;-77
2021/11/29 02:48:43;;;;;;;15.50;10.95;;;2.10;79.30;;;1.08;66.51;93028.84;5071431;28;20712;-78
2021/11/29 02:51:32;;;;;;;13.05;10.13;;;2.10;79.20;;;1.06;66.45;93027.41;5088906;28;20294;-78
2021/11/29 02:54:14;;;;;;;17.45;11.52;;;2.10;79.20;;;1.08;66.88;93025.47;5088519;28;20285;-77
2021/11/29 02:56:46;;;;;;;18.20;11.27;;;2.10;79.10;;;1.09;66.92;93022.69;5050378;28;20184;-78
2021/11/29 02:59:17;;;;;;;17.27;10.75;;;2.10;79.10;;;1.06;66.58;93019.66;5053891;28;20220;-78
2021/11/29 03:01:48;;;;;;;15.27;10.40;;;2.20;79.10;;;1.13;66.58;93030.88;5070814;28;20191;-78
2021/11/29 03:04:22;;;;;;;17.38;10.65;;;2.20;79.10;;;1.12;66.68;93031.84;5054543;28;20215;-77
2021/11/29 03:06:50;;;;;;;17.67;10.50;;;2.20;79.10;;;1.10;66.49;93029.47;5052431;28;20684;-79
2021/11/29 03:09:18;;;;;;;18.77;11.98;;;2.20;79.10;;;1.14;66.85;93029.91;5070944;28;20614;-77
2021/11/29 03:11:47;;;;;;;17.67;11.18;;;2.20;79.10;;;1.14;66.75;93027.31;5053725;28;20199;-78
2021/11/29 03:14:16;;;;;;;18.75;11.30;;;2.20;79.10;;;1.18;66.40;93030.34;5051057;28;20215;-77
2021/11/29 03:16:45;;;;;;;19.85;11.43;;;2.20;79.10;;;1.19;66.73;93030.16;5080392;28;20232;-79
2021/11/29 03:19:12;;;;;;;18.17;11.57;;;2.20;79.10;;;1.20;66.64;93033.56;5070837;28;20231;-77
2021/11/29 03:21:39;;;;;;;19.75;11.55;;;2.20;79.10;;;1.21;66.59;93029.97;5044406;28;20192;-79
2021/11/29 03:24:09;;;;;;;18.77;12.00;;;2.20;79.10;;;1.22;66.65;93031.56;5050364;28;20319;-77
2021/11/29 03:26:39;;;;;;;17.30;11.45;;;2.30;79.10;;;1.20;66.56;93031.75;5066936;28;20256;-78
2021/11/29 03:29:14;;;;;;;17.45;10.95;;;2.30;79.10;;;1.23;66.69;93039.16;5052232;28;20627;-78
2021/11/29 03:31:43;;;;;;;18.10;12.07;;;2.30;79.10;;;1.24;66.70;93042.53;5051871;28;20197;-78
2021/11/29 03:34:15;;;;;;;18.52;11.65;;;2.30;79.10;;;1.21;66.68;93040.28;5065322;28;20219;-78
2021/11/29 03:36:45;;;;;;;15.85;10.82;;;2.30;79.10;;;1.23;66.61;93043.50;5034656;28;20552;-78
2021/11/29 03:39:24;;;;;;;16.75;10.77;;;2.30;79.20;;;1.25;66.57;93046.72;5052964;28;20588;-77
2021/11/29 03:41:54;;;;;;;16.77;11.40;;;2.30;79.20;;;1.23;66.61;93046.09;5069835;28;20187;-79
2021/11/29 03:44:22;;;;;;;16.67;10.50;;;2.30;79.10;;;1.28;66.82;93054.09;5049729;28;20292;-78
2021/11/29 03:46:52;;;;;;;16.75;11.50;;;2.30;79.10;;;1.29;66.65;93050.53;5077902;28;20697;-78
2021/11/29 03:49:20;;;;;;;16.15;10.75;;;2.30;79.10;;;1.28;66.73;93052.31;5063810;28;20312;-78
2021/11/29 03:51:47;;;;;;;18.13;11.32;;;2.30;79.10;;;1.27;66.59;93057.69;5068030;28;20218;-78
2021/11/29 03:54:14;;;;;;;16.40;11.23;;;2.30;79.10;;;1.27;66.31;93057.69;5068298;28;20231;-78
2021/11/29 03:56:42;;;;;;;18.48;10.90;;;2.30;79.10;;;1.27;66.50;93048.13;5051353;28;20221;-79
2021/11/29 03:59:09;;;;;;;15.85;10.93;;;2.30;79.10;;;1.28;66.55;93049.75;5066718;28;20226;-78
2021/11/29 04:01:38;;;;;;;16.67;11.10;;;2.30;79.10;;;1.25;66.92;93054.47;5049053;28;20659;-77
2021/11/29 04:04:06;;;;;;;18.35;11.07;;;2.40;79.20;;;1.27;66.78;93068.00;5068057;28;20225;-78
2021/11/29 04:06:33;;;;;;;17.75;11.40;;;2.30;79.10;;;1.24;66.62;93053.66;5070168;28;20233;-78
2021/11/29 04:09:03;;;;;;;18.52;11.77;;;2.40;79.20;;;1.25;66.68;93057.84;5064633;28;20578;-79
2021/11/29 04:11:33;;;;;;;17.02;11.40;;;2.30;79.20;;;1.25;66.66;93059.63;5051463;28;20208;-78
2021/11/29 04:14:00;;;;;;;18.88;11.90;;;2.40;79.20;;;1.21;66.42;93056.59;5058516;28;20200;-79
2021/11/29 04:16:28;;;;;;;18.88;10.68;;;2.30;79.10;;;1.24;66.64;93063.97;5054892;28;20286;-78
2021/11/29 04:18:57;;;;;;;15.98;10.13;;;2.30;79.10;;;1.26;66.58;93063.81;5056225;28;20230;-78
2021/11/29 04:21:25;;;;;;;18.48;11.15;;;2.30;79.10;;;1.24;66.60;93066.56;5040176;28;20752;-78
2021/11/29 04:23:53;;;;;;;19.63;11.20;;;2.30;79.10;;;1.21;66.59;93068.69;5055892;28;20231;-79
2021/11/29 04:26:20;;;;;;;17.30;11.52;;;2.30;79.10;;;1.22;66.55;93072.88;5038597;28;20191;-78
2021/11/29 04:28:50;;;;;;;17.40;10.65;;;2.40;79.20;;;1.20;66.76;93067.13;5054274;28;20215;-79
2021/11/29 04:31:18;;;;;;;17.52;11.10;;;2.30;79.20;;;1.25;66.79;93072.53;5053960;28;20318;-78
2021/11/29 04:33:45;;;;;;;17.00;10.63;;;2.30;79.10;;;1.25;66.72;93075.13;5071092;28;20692;-78
2021/11/29 04:36:13;;;;;;;16.73;10.95;;;2.30;79.10;;;1.18;66.49;93069.06;5038206;28;20498;-78
2021/11/29 04:38:40;;;;;;;14.65;10.02;;;2.30;79.10;;;1.25;66.38;93077.72;5039416;28;20227;-78
2021/11/29 04:41:08;;;;;;;18.52;10.15;;;2.30;80.00;;;1.26;66.63;93087.06;5056447;28;20227;-78
2021/11/29 04:43:35;;;;;;;19.65;10.60;;;2.30;79.10;;;1.27;66.51;93086.88;5072872;28;20237;-78
2021/11/29 04:46:02;;;;;;;18.10;10.52;;;2.30;79.20;;;1.28;66.59;93087.66;5058044;28;20217;-79
2021/11/29 04:48:30;;;;;;;15.55;10.10;;;2.30;79.10;;;1.28;66.71;93087.66;5040631;28;20601;-78
2021/11/29 04:50:58;;;;;;;17.83;10.45;;;2.30;79.10;;;1.30;66.55;93093.47;5057717;28;20286;-79
2021/11/29 04:53:25;;;;;;;20.08;10.32;;;2.30;79.10;;;1.32;66.75;93090.69;5056601;28;20286;-78
2021/11/29 04:55:52;;;;;;;18.50;10.90;;;2.30;79.10;;;1.31;66.74;93095.06;5073686;28;20184;-78
2021/11/29 04:58:19;;;;;;;17.17;10.50;;;2.40;79.20;;;1.34;66.59;93099.06;5040571;28;20199;-78
2021/11/29 05:00:51;;;;;;;17.30;9.90;;;2.40;79.20;;;1.33;66.79;93093.09;5073598;28;20192;-78
2021/11/29 05:03:19;;;;;;;18.02;10.85;;;2.40;79.20;;;1.36;66.76;93102.28;5058151;28;20198;-78
2021/11/29 05:05:47;;;;;;;16.48;9.77;;;2.40;79.20;;;1.36;66.41;93100.47;5073587;28;20232;-78
2021/11/29 05:08:24;;;;;;;19.10;10.77;;;2.40;79.20;;;1.37;66.96;93096.94;5092425;28;20229;-78
2021/11/29 05:10:51;;;;;;;18.35;10.68;;;2.40;79.20;;;1.38;66.53;93108.03;5048005;28;20537;-78
2021/11/29 05:13:19;;;;;;;19.92;11.35;;;2.40;79.20;;;1.39;66.52;93107.06;5049068;28;20645;-78
2021/11/29 05:15:46;;;;;;;18.45;10.95;;;2.40;79.20;;;1.40;66.30;93117.25;5073606;28;20197;-78
2021/11/29 05:18:14;;;;;;;17.65;10.70;;;2.40;79.20;;;1.40;66.45;93119.81;5057497;28;20202;-78
2021/11/29 05:20:43;;;;;;;18.88;11.85;;;2.40;79.20;;;1.41;66.56;93120.63;5056626;28;20227;-78
2021/11/29 05:23:11;;;;;;;17.48;11.18;;;2.40;79.20;;;1.39;66.62;93118.22;5056045;28;20199;-78
2021/11/29 05:25:39;;;;;;;17.02;11.05;;;2.40;79.20;;;1.40;66.84;93125.00;5054748;28;20706;-78
2021/11/29 05:28:06;;;;;;;18.25;10.40;;;2.40;79.20;;;1.42;66.69;93122.22;5054639;28;20215;-79
2021/11/29 05:30:34;;;;;;;20.35;11.00;;;2.40;79.20;;;1.41;66.38;93124.00;5071563;28;20635;-78
2021/11/29 05:33:02;;;;;;;17.75;11.85;;;2.50;79.20;;;1.43;66.72;93124.63;5068091;28;20629;-78
2021/11/29 05:35:29;;;;;;;18.40;10.77;;;2.50;79.20;;;1.41;66.62;93120.63;5037852;28;20554;-77
2021/11/29 05:37:56;;;;;;;19.40;11.65;;;2.50;79.20;;;1.42;66.60;93124.81;5072675;28;20551;-78
2021/11/29 05:40:23;;;;;;;17.70;11.18;;;2.50;79.30;;;1.42;66.76;93129.97;5055615;28;20305;-79
2021/11/29 05:42:51;;;;;;;16.88;11.65;;;2.50;79.20;;;1.42;66.72;93132.56;5054307;28;20223;-79
2021/11/29 05:45:18;;;;;;;18.52;10.80;;;2.50;79.20;;;1.41;66.71;93129.16;5050994;28;20234;-78
2021/11/29 05:47:45;;;;;;;19.02;11.07;;;2.50;79.20;;;1.44;66.49;93138.31;5035206;28;20208;-78
2021/11/29 05:50:15;;;;;;;17.67;10.48;;;2.50;79.20;;;1.42;66.60;93138.50;5069853;28;20582;-78
2021/11/29 05:52:44;;;;;;;19.38;10.82;;;2.50;79.20;;;1.44;66.74;93146.06;5071906;28;20195;-78
2021/11/29 05:55:13;;;;;;;16.85;11.30;;;2.50;79.20;;;1.44;66.32;93151.25;5073175;28;20203;-79
2021/11/29 05:57:42;;;;;;;15.73;10.13;;;2.50;79.20;;;1.45;66.72;93158.00;5056099;28;20211;-78
2021/11/29 06:00:14;;;;;;;19.35;10.98;;;2.50;79.20;;;1.48;66.67;93169.75;5056053;28;20752;-78
2021/11/29 06:02:43;;;;;;;16.45;10.43;;;2.50;79.20;;;1.47;66.37;93166.41;5040045;28;20199;-79
2021/11/29 06:05:12;;;;;;;19.67;12.57;;;2.50;79.30;;;1.46;66.67;93172.53;5038968;28;20211;-78
2021/11/29 06:07:40;;;;;;;20.20;12.07;;;2.50;79.20;;;1.44;66.56;93166.75;5052319;28;20227;-78
2021/11/29 06:10:09;;;;;;;19.48;11.32;;;2.50;79.20;;;1.48;66.45;93175.75;5052972;28;20258;-79
2021/11/29 06:12:37;;;;;;;19.52;12.32;;;2.50;79.20;;;1.50;66.59;93186.72;5054308;28;20257;-79
2021/11/29 06:15:05;;;;;;;17.85;11.40;;;2.50;79.30;;;1.44;66.69;93177.06;5072032;28;20256;-78
2021/11/29 06:17:32;;;;;;;17.50;10.90;;;2.50;79.20;;;1.50;66.57;93183.31;5072362;28;20195;-79
2021/11/29 06:20:00;;;;;;;15.85;10.68;;;2.50;79.30;;;1.53;66.61;93185.56;5072254;28;20223;-79
2021/11/29 06:22:27;;;;;;;18.10;10.90;;;2.50;79.30;;;1.49;66.71;93182.53;5055389;28;20195;-79
2021/11/29 06:24:55;;;;;;;15.88;10.50;;;2.50;79.20;;;1.53;66.56;93193.31;5072060;28;20211;-78
2021/11/29 06:27:22;;;;;;;16.02;11.02;;;2.50;79.20;;;1.53;66.50;93198.47;5071620;28;20558;-79
2021/11/29 06:29:49;;;;;;;18.48;11.27;;;2.60;79.30;;;1.54;66.77;93203.47;5039109;28;20223;-78
2021/11/29 06:32:18;;;;;;;17.70;10.60;;;2.60;79.30;;;1.56;66.90;93211.84;5072196;28;20282;-78
2021/11/29 06:34:48;;;;;;;15.60;11.05;;;2.50;79.20;;;1.58;67.08;93212.44;5039626;28;20222;-78
2021/11/29 06:37:15;;;;;;;14.18;9.70;;;2.60;79.30;;;1.60;66.49;93209.69;5055694;28;20257;-78
2021/11/29 06:39:42;;;;;;;15.85;10.80;;;2.60;79.30;;;1.64;66.62;93213.53;5105786;28;20260;-78
2021/11/29 06:42:09;;;;;;;17.63;11.43;;;2.60;79.30;;;1.62;66.76;93217.25;5054275;28;20281;-79
2021/11/29 06:44:37;;;;;;;18.90;12.00;;;2.60;79.30;;;1.66;66.63;93221.09;5055124;28;20222;-79
2021/11/29 06:47:04;;;;;;;18.65;11.90;;;2.70;79.40;;;1.67;66.72;93235.63;5055621;28;20267;-78
2021/11/29 06:49:31;;;;;;;22.23;12.48;;;2.60;79.30;;;1.68;66.62;93225.09;5055105;28;20230;-78
2021/11/29 06:52:02;;;;;;;19.20;12.55;;;2.70;79.40;;;1.68;66.79;93234.63;5054893;28;20196;-78
2021/11/29 06:54:33;;;;;;;21.80;12.90;;;2.70;79.40;;;1.68;66.65;93240.59;5055781;28;20219;-79
2021/11/29 06:57:00;;;;;;;21.85;12.80;;;2.70;79.40;;;1.70;66.53;93243.81;5071685;28;20245;-78
2021/11/29 06:59:28;;;;;;;17.83;11.77;;;2.70;79.40;;;1.69;66.84;93234.44;5055196;28;20219;-78
2021/11/29 07:01:56;;;;;;;18.90;11.98;;;2.70;79.40;;;1.74;66.62;93244.25;5054404;28;20294;-78
2021/11/29 07:04:23;;;;;;;17.38;11.93;;;2.70;79.40;;;1.72;66.72;93243.63;5038710;28;20219;-78
2021/11/29 07:06:52;;;;;;;18.63;12.85;;;2.70;79.40;;;1.73;66.55;93247.81;5038236;28;20199;-78
2021/11/29 07:09:19;;;;;;;20.40;12.38;;;2.70;79.40;;;1.73;66.44;93256.41;5070834;28;20215;-79
2021/11/29 07:11:46;;;;;;;20.30;13.30;;;2.70;79.40;;;1.71;66.66;93248.00;5070727;28;20600;-78
2021/11/29 07:14:14;;;;;;;16.58;11.35;;;2.70;79.40;;;1.75;66.62;93245.88;5054797;28;20242;-78
2021/11/29 07:16:48;;;;;;;18.65;11.85;;;2.80;79.40;;;1.77;66.51;93256.84;5054971;28;20199;-79
2021/11/29 07:19:17;;;;;;;16.70;11.27;;;2.80;79.40;;;1.81;66.49;93258.06;5054735;28;20223;-78
2021/11/29 07:21:46;;;;;;;16.90;12.43;;;2.80;79.40;;;1.83;66.68;93257.88;5054464;28;20260;-79
2021/11/29 07:24:14;;;;;;;18.80;12.93;;;2.80;79.40;;;1.79;66.55;93248.91;5065752;28;20216;-78
2021/11/29 07:26:45;;;;;;;18.58;12.50;;;2.80;79.40;;;1.84;66.58;93259.50;5043834;28;20286;-78
2021/11/29 07:29:14;;;;;;;17.98;11.80;;;2.80;80.20;;;1.86;66.86;93268.69;5069988;28;20234;-78
2021/11/29 07:31:43;;;;;;;17.45;12.50;;;2.80;79.40;;;1.90;66.74;93274.28;5049252;28;20231;-77
2021/11/29 07:34:11;;;;;;;17.65;11.93;;;2.80;79.40;;;1.94;66.75;93272.16;5070698;28;20320;-79
2021/11/29 07:36:39;;;;;;;19.95;13.30;;;2.90;79.50;;;1.97;66.72;93272.59;5069438;28;20195;-78
2021/11/29 07:39:09;;;;;;;17.50;11.48;;;2.90;79.60;;;2.05;67.15;93272.50;5055777;28;20224;-79
2021/11/29 07:41:37;;;;;;;18.02;12.73;;;3.00;79.80;;;2.09;66.92;93267.78;5048916;28;20698;-79
2021/11/29 07:44:05;;;;;;;20.30;12.70;;;3.00;79.80;;;2.14;66.80;93267.25;5034178;28;20252;-78
2021/11/29 07:46:33;;;;;;;19.50;13.23;;;3.00;79.70;;;2.19;66.59;93273.47;5052294;28;20265;-78
2021/11/29 07:49:02;;;;;;;18.73;12.00;;;3.00;79.70;;;2.26;66.82;93275.31;5052931;28;20761;-78
2021/11/29 07:51:30;;;;;;;17.58;11.43;;;3.10;79.80;;;2.34;66.59;93277.81;5036090;28;20574;-78
2021/11/29 07:53:57;;;;;;;18.42;12.02;;;3.10;79.80;;;2.42;66.87;93285.47;5052326;28;20733;-79
2021/11/29 07:56:25;;;;;;;18.40;13.27;;;3.10;80.00;;;2.50;66.76;93287.13;5036498;28;20207;-78
2021/11/29 07:58:53;;;;;;;19.60;13.75;;;3.20;80.00;;;2.58;66.74;93292.22;5035164;28;20622;-78
2021/11/29 08:01:20;;;;;;;18.48;12.68;;;3.30;80.20;;;2.66;67.07;93297.28;5036634;28;20195;-78
2021/11/29 08:03:47;;;;;;;17.85;13.25;;;3.40;80.20;;;2.71;66.57;93299.28;5068296;28;20224;-78
2021/11/29 08:06:15;;;;;;;21.23;14.68;;;3.40;80.00;;;2.71;66.42;93300.13;5053798;28;20204;-79
2021/11/29 08:08:43;;;;;;;19.23;14.23;;;3.50;79.90;;;2.68;66.11;93297.88;5037725;28;20262;-79
2021/11/29 08:11:11;;;;;;;20.23;13.77;;;3.50;79.90;;;2.70;66.17;93301.09;5070202;28;20199;-78
2021/11/29 08:13:41;;;;;;;17.83;12.57;;;3.50;79.70;;;2.67;66.34;93296.31;5054940;28;20269;-79
2021/11/29 08:16:08;;;;;;;17.95;13.25;;;3.60;79.80;;;2.78;66.40;93307.94;5054312;28;20293;-79
2021/11/29 08:18:37;;;;;;;18.38;13.32;;;3.60;79.80;;;2.80;66.16;93308.56;5054384;28;20298;-78
2021/11/29 08:21:05;;;;;;;19.80;13.55;;;3.60;79.90;;;2.85;66.13;93315.78;5069395;28;20202;-79
2021/11/29 08:23:33;;;;;;;21.08;13.73;;;3.70;79.90;;;2.91;66.41;93324.63;5054042;28;20226;-79
2021/11/29 08:26:00;;;;;;;19.08;12.18;;;3.70;79.90;;;2.94;66.37;93329.41;5053563;28;20206;-78
2021/11/29 08:28:28;;;;;;;20.50;13.57;;;3.70;79.90;;;2.97;66.23;93332.44;5070327;28;20280;-78
2021/11/29 08:30:56;;;;;;;19.30;13.32;;;3.80;79.80;;;2.98;66.09;93339.22;5069751;28;20710;-79
2021/11/29 08:33:23;;;;;;;17.85;12.85;;;3.80;79.80;;;2.97;66.29;93335.03;5037723;28;20206;-78
2021/11/29 08:35:51;;;;;;;20.98;13.07;;;3.80;79.60;;;2.99;66.25;93337.44;5087139;28;20207;-79
2021/11/29 08:38:18;;;;;;;19.27;13.32;;;3.80;79.60;;;3.00;66.34;93344.22;5070807;28;20183;-79
2021/11/29 08:40:46;;;;;;;20.75;13.70;;;3.80;79.50;;;2.97;65.94;93340.22;5070328;28;20275;-79
2021/11/29 08:43:16;;;;;;;18.55;13.18;;;3.80;79.30;;;2.94;65.88;93344.94;5053777;28;20241;-78
2021/11/29 08:45:49;;;;;;;20.42;14.02;;;3.80;79.30;;;2.94;65.81;93342.34;5051395;28;20259;-79
2021/11/29 08:48:17;;;;;;;21.17;14.20;;;3.90;79.30;;;2.93;66.02;93345.94;5073585;28;20223;-79
2021/11/29 08:50:48;;;;;;;18.65;12.27;;;3.80;79.30;;;2.91;66.31;93342.75;5085761;28;20199;-78
2021/11/29 08:53:25;;;;;;;19.30;13.38;;;3.80;79.30;;;2.94;65.78;93355.31;5086744;28;20633;-78
2021/11/29 08:55:54;;;;;;;16.30;12.10;;;3.80;79.20;;;2.93;65.78;93364.06;5069861;28;20533;-78
2021/11/29 08:58:22;;;;;;;17.38;12.25;;;3.90;80.10;;;2.93;65.92;93358.88;5055915;28;20672;-78
2021/11/29 09:00:54;;;;;;;17.27;11.57;;;3.80;79.20;;;2.97;66.48;93358.34;5063021;28;20265;-79
2021/11/29 09:03:23;;;;;;;16.85;11.30;;;3.80;79.40;;;3.06;66.47;93366.00;5057462;28;20206;-78
2021/11/29 09:05:51;;;;;;;16.88;11.90;;;3.90;79.60;;;3.09;65.87;93366.44;5040026;28;20564;-78
2021/11/29 09:08:18;;;;;;;16.17;11.73;;;3.90;79.50;;;3.11;65.79;93369.63;5057294;28;20223;-79
2021/11/29 09:10:47;;;;;;;17.23;12.05;;;3.90;79.40;;;3.12;65.91;93373.81;5056999;28;20245;-79
2021/11/29 09:13:35;;;;;;;16.73;11.38;;;3.90;79.40;;;3.14;65.59;93377.03;5045584;28;20207;-79
2021/11/29 09:16:05;;;;;;;16.08;11.20;;;4.00;79.40;;;3.18;65.88;93385.25;5073380;28;20195;-79
2021/11/29 09:18:33;;;;;;;15.38;10.93;;;4.00;79.30;;;3.15;65.85;93388.19;5056529;28;20191;-79
2021/11/29 09:21:01;;;;;;;12.85;9.90;;;4.00;79.20;;;3.09;65.49;93387.16;5057021;28;20266;-80
2021/11/29 09:23:29;;;;;;;11.68;8.65;;;4.00;79.10;;;3.04;65.23;93387.69;5057091;28;20645;-79
2021/11/29 09:25:57;;;;;;;13.75;8.50;;;4.00;78.90;;;2.99;65.50;93389.22;5056919;28;20568;-79
2021/11/29 09:28:24;;;;;;;13.35;9.07;;;4.00;78.90;;;2.99;65.72;93379.69;5056312;28;20301;-79
2021/11/29 09:30:52;;;;;;;14.82;9.68;;;4.00;79.00;;;3.01;66.07;93379.50;5055172;28;20283;-78
2021/11/29 09:33:21;;;;;;;11.85;8.82;;;3.90;79.10;;;3.05;65.90;93383.31;5068900;28;20212;-78
2021/11/29 09:35:49;;;;;;;13.45;9.55;;;3.90;79.10;;;3.07;65.60;93388.31;5051734;28;20222;-78
2021/11/29 09:38:17;;;;;;;13.68;9.68;;;3.90;79.10;;;3.06;65.63;93386.72;5052306;28;20200;-79
2021/11/29 09:40:47;;;;;;;11.95;9.80;;;3.90;79.90;;;3.11;65.77;93387.75;5037256;28;20200;-79
2021/11/29 09:43:17;;;;;;;13.25;9.85;;;3.90;79.20;;;3.19;66.03;93394.63;5072121;28;20207;-78
2021/11/29 09:45:46;;;;;;;14.18;10.43;;;4.00;79.40;;;3.28;66.22;93397.91;5055363;28;20241;-79
2021/11/29 09:48:16;;;;;;;13.00;9.52;;;4.00;79.60;;;3.41;66.25;93398.03;5055625;28;20742;-79
2021/11/29 09:50:48;;;;;;;14.73;10.35;;;4.10;79.80;;;3.51;66.11;93401.09;5069321;28;20737;-79
2021/11/29 09:53:20;;;;;;;14.70;10.38;;;4.10;79.80;;;3.66;65.85;93401.06;5072275;28;20619;-79
2021/11/29 09:55:48;;;;;;;12.95;9.43;;;4.20;79.90;;;3.75;65.48;93400.88;5088878;28;20198;-78
2021/11/29 09:58:16;;;;;;;13.40;9.52;;;4.30;79.90;;;3.76;65.26;93392.94;5036086;28;20196;-78
2021/11/29 10:00:57;;;;;;;12.13;8.85;;;4.30;79.60;;;3.83;65.35;93400.75;5061280;28;20224;-79
2021/11/29 10:03:24;;;;;;;11.38;8.73;;;4.40;79.60;;;3.93;65.95;93397.84;5085781;28;20723;-78
2021/11/29 10:05:53;;;;;;;11.55;8.43;;;4.50;79.90;;;4.02;65.87;93391.53;5081825;28;20257;-78
2021/11/29 10:08:35;;;;;;;11.40;7.97;;;4.50;79.90;;;4.10;65.41;93398.38;5055602;28;20688;-79
2021/11/29 10:11:25;;;;;;;10.13;7.15;;;4.60;79.70;;;4.11;65.29;93393.00;5043663;28;20286;-79
2021/11/29 10:14:02;;;;;;;11.00;8.55;;;4.70;79.60;;;4.20;65.40;93400.63;5053077;28;20223;-78
2021/11/29 10:16:42;;;;;;;10.93;8.32;;;4.70;79.40;;;4.22;65.57;93403.84;5036903;28;20410;-77
2021/11/29 10:19:36;;;;;;;12.07;8.73;;;4.80;79.30;;;4.27;65.81;93412.66;5055056;28;20229;-77
2021/11/29 10:22:20;;;;;;;14.60;9.68;;;4.90;79.40;;;4.30;65.44;93414.09;5018357;28;20555;-77
2021/11/29 10:24:50;;;;;;;11.93;8.80;;;5.00;79.20;;;4.35;65.21;93413.53;5046074;28;20261;-78
2021/11/29 10:27:36;;;;;;;12.43;9.32;;;5.00;79.50;;;4.38;65.48;93413.13;5054681;28;20295;-77
2021/11/29 10:30:05;;;;;;;13.30;9.77;;;5.00;79.40;;;4.37;65.36;93407.13;5017639;28;20431;-78